createdAt,value
2019-03-23T00:00:53.882Z,406.00
2019-03-23T00:01:53.871Z,407.70
2019-03-23T00:02:53.856Z,405.28
2019-03-23T00:03:53.858Z,406.55
2019-03-23T00:04:53.832Z,405.61
2019-03-23T00:05:53.825Z,405.49
2019-03-23T00:06:53.813Z,404.67
2019-03-23T00:07:53.796Z,404.90
2019-03-23T00:08:53.813Z,404.41
2019-03-23T00:09:53.775Z,406.61
2019-03-23T00:10:53.773Z,403.78
2019-03-23T00:11:53.767Z,405.45
2019-03-23T00:12:53.738Z,405.84
2019-03-23T00:13:53.751Z,404.87
2019-03-23T00:14:53.727Z,404.23
2019-03-23T00:15:53.722Z,405.52
2019-03-23T00:16:53.705Z,404.59
2019-03-23T00:17:53.680Z,404.15
2019-03-23T00:18:53.694Z,403.90
2019-03-23T00:19:53.664Z,407.17
2019-03-23T00:20:53.661Z,404.58
2019-03-23T00:21:53.655Z,407.94
2019-03-23T00:22:53.632Z,405.33
2019-03-23T00:23:53.651Z,404.06
2019-03-23T00:24:53.613Z,403.45
2019-03-23T00:25:53.600Z,403.97
2019-03-23T00:26:53.591Z,403.72
2019-03-23T00:27:53.579Z,405.63
2019-03-23T00:28:53.575Z,403.89
2019-03-23T00:29:53.558Z,405.35
2019-03-23T00:30:53.547Z,406.94
2019-03-23T00:31:53.528Z,405.15
2019-03-23T00:32:53.527Z,405.31
2019-03-23T00:33:53.529Z,405.62
2019-03-23T00:34:53.503Z,406.85
2019-03-23T00:35:53.485Z,405.71
2019-03-23T00:36:53.491Z,404.97
2019-03-23T00:37:53.479Z,405.93
2019-03-23T00:38:53.478Z,406.43
2019-03-23T00:39:53.464Z,406.92
2019-03-23T00:40:53.449Z,404.18
2019-03-23T00:41:53.422Z,405.93
2019-03-23T00:42:53.417Z,404.45
2019-03-23T00:43:53.405Z,404.96
2019-03-23T00:44:53.414Z,404.92
2019-03-23T00:45:53.415Z,406.50
2019-03-23T00:46:53.366Z,404.50
2019-03-23T00:47:53.349Z,405.36
2019-03-23T00:48:53.339Z,404.58
2019-03-23T00:49:53.348Z,406.90
2019-03-23T00:50:53.318Z,403.69
2019-03-23T00:51:53.304Z,405.83
2019-03-23T00:52:53.299Z,404.05
2019-03-23T00:53:53.285Z,404.70
2019-03-23T00:54:53.289Z,404.00
2019-03-23T00:55:53.263Z,403.64
2019-03-23T00:56:53.271Z,405.08
2019-03-23T00:57:53.242Z,404.44
2019-03-23T00:58:53.237Z,405.08
2019-03-23T00:59:53.236Z,404.52
2019-03-23T01:00:53.211Z,405.72
2019-03-23T01:01:53.197Z,404.48
2019-03-23T01:02:53.184Z,404.52
2019-03-23T01:03:53.170Z,405.42
2019-03-23T01:04:53.171Z,405.50
2019-03-23T01:05:53.157Z,407.26
2019-03-23T01:06:53.138Z,404.43
2019-03-23T01:07:53.134Z,406.85
2019-03-23T01:08:53.115Z,405.54
2019-03-23T01:09:53.148Z,405.42
2019-03-23T01:10:53.119Z,405.76
2019-03-23T01:11:53.093Z,405.84
2019-03-23T01:12:53.076Z,406.42
2019-03-23T01:13:53.063Z,406.50
2019-03-23T01:14:53.084Z,403.91
2019-03-23T01:15:53.065Z,406.80
2019-03-23T01:16:53.036Z,405.11
2019-03-23T01:17:53.050Z,403.65
2019-03-23T01:18:53.013Z,404.81
2019-03-23T01:19:53.023Z,404.82
2019-03-23T01:20:52.981Z,403.49
2019-03-23T01:21:52.986Z,409.73
2019-03-23T01:22:52.969Z,404.16
2019-03-23T01:23:52.960Z,406.64
2019-03-23T01:24:52.969Z,403.54
2019-03-23T01:25:52.934Z,405.02
2019-03-23T01:26:52.935Z,403.49
2019-03-23T01:27:52.907Z,404.46
2019-03-23T01:28:52.910Z,406.96
2019-03-23T01:29:52.896Z,404.48
2019-03-23T01:30:52.906Z,406.53
2019-03-23T01:31:52.874Z,405.00
2019-03-23T01:32:52.848Z,403.93
2019-03-23T01:33:52.847Z,405.77
2019-03-23T01:34:52.857Z,404.96
2019-03-23T01:35:52.827Z,403.35
2019-03-23T01:37:02.434Z,403.98
2019-03-23T01:37:53.807Z,404.94
2019-03-23T01:38:52.799Z,403.71
2019-03-23T01:39:52.796Z,405.35
2019-03-23T01:40:52.767Z,405.28
2019-03-23T01:41:52.754Z,403.87
2019-03-23T01:42:52.751Z,404.05
2019-03-23T01:43:52.747Z,405.55
2019-03-23T01:44:52.730Z,403.83
2019-03-23T01:45:52.717Z,404.41
2019-03-23T01:46:52.706Z,403.71
2019-03-23T01:47:52.690Z,403.16
2019-03-23T01:48:52.695Z,403.33
2019-03-23T01:49:52.676Z,404.15
2019-03-23T01:50:52.652Z,403.25
2019-03-23T01:51:52.658Z,403.67
2019-03-23T01:52:52.648Z,403.46
2019-03-23T01:53:52.634Z,403.71
2019-03-23T01:54:52.637Z,403.77
2019-03-23T01:55:52.592Z,403.99
2019-03-23T01:56:52.589Z,404.44
2019-03-23T01:57:52.595Z,404.16
2019-03-23T01:58:52.615Z,404.32
2019-03-23T01:59:52.552Z,403.79
2019-03-23T02:00:52.566Z,404.44
2019-03-23T02:01:52.540Z,404.45
2019-03-23T02:02:52.529Z,403.64
2019-03-23T02:03:52.517Z,404.18
2019-03-23T02:04:52.499Z,404.11
2019-03-23T02:05:52.497Z,404.56
2019-03-23T02:06:52.489Z,403.94
2019-03-23T02:07:52.475Z,404.02
2019-03-23T02:08:52.454Z,403.78
2019-03-23T02:09:52.455Z,404.17
2019-03-23T02:10:52.525Z,403.65
2019-03-23T02:11:52.437Z,403.46
2019-03-23T02:12:52.421Z,403.81
2019-03-23T02:13:52.442Z,405.74
2019-03-23T02:14:52.396Z,403.52
2019-03-23T02:15:52.395Z,405.65
2019-03-23T02:16:52.364Z,403.67
2019-03-23T02:17:52.358Z,404.50
2019-03-23T02:18:52.344Z,404.42
2019-03-23T02:19:52.347Z,405.44
2019-03-23T02:20:52.336Z,403.16
2019-03-23T02:21:52.317Z,403.55
2019-03-23T02:22:52.311Z,405.25
2019-03-23T02:23:52.290Z,403.07
2019-03-23T02:24:52.289Z,403.26
2019-03-23T02:25:52.297Z,406.21
2019-03-23T02:26:52.264Z,405.20
2019-03-23T02:27:52.266Z,405.63
2019-03-23T02:28:52.238Z,407.53
2019-03-23T02:29:52.235Z,403.19
2019-03-23T02:30:52.263Z,403.81
2019-03-23T02:31:52.208Z,407.07
2019-03-23T02:32:52.186Z,403.31
2019-03-23T02:33:52.191Z,405.55
2019-03-23T02:34:52.167Z,404.75
2019-03-23T02:35:52.175Z,404.53
2019-03-23T02:36:52.150Z,403.23
2019-03-23T02:37:52.155Z,404.45
2019-03-23T02:38:52.126Z,404.62
2019-03-23T02:39:52.131Z,403.39
2019-03-23T02:40:52.141Z,403.75
2019-03-23T02:41:52.093Z,403.49
2019-03-23T02:42:52.086Z,404.68
2019-03-23T02:43:52.078Z,403.63
2019-03-23T02:44:52.070Z,404.45
2019-03-23T02:45:52.077Z,404.35
2019-03-23T02:46:52.046Z,403.43
2019-03-23T02:47:52.030Z,403.82
2019-03-23T02:48:52.016Z,403.55
2019-03-23T02:49:52.009Z,403.38
2019-03-23T02:50:52.014Z,404.20
2019-03-23T02:51:51.985Z,403.18
2019-03-23T02:52:51.982Z,403.70
2019-03-23T02:53:51.964Z,403.36
2019-03-23T02:54:51.948Z,403.70
2019-03-23T02:55:51.976Z,403.69
2019-03-23T02:56:51.929Z,404.02
2019-03-23T02:57:51.913Z,403.93
2019-03-23T02:58:51.918Z,403.54
2019-03-23T02:59:51.894Z,405.13
2019-03-23T03:00:51.905Z,403.38
2019-03-23T03:01:51.866Z,403.34
2019-03-23T03:02:51.879Z,404.43
2019-03-23T03:03:51.854Z,403.74
2019-03-23T03:04:51.841Z,403.72
2019-03-23T03:05:51.843Z,403.69
2019-03-23T03:06:51.833Z,403.55
2019-03-23T03:07:51.817Z,403.19
2019-03-23T03:08:51.793Z,404.40
2019-03-23T03:09:51.795Z,405.31
2019-03-23T03:10:51.779Z,404.42
2019-03-23T03:11:51.794Z,403.03
2019-03-23T03:12:51.751Z,403.27
2019-03-23T03:13:51.740Z,402.89
2019-03-23T03:14:51.735Z,402.80
2019-03-23T03:15:51.722Z,403.06
2019-03-23T03:16:51.728Z,403.35
2019-03-23T03:17:51.698Z,403.82
2019-03-23T03:18:51.683Z,403.42
2019-03-23T03:19:51.675Z,403.58
2019-03-23T03:20:51.658Z,404.32
2019-03-23T03:21:51.670Z,404.18
2019-03-23T03:22:51.651Z,403.89
2019-03-23T03:23:51.631Z,403.35
2019-03-23T03:24:51.617Z,403.77
2019-03-23T03:25:51.606Z,403.21
2019-03-23T03:26:51.610Z,403.64
2019-03-23T03:27:51.587Z,402.85
2019-03-23T03:28:51.572Z,403.24
2019-03-23T03:29:51.564Z,403.03
2019-03-23T03:30:51.553Z,403.62
2019-03-23T03:31:51.557Z,404.62
2019-03-23T03:32:51.538Z,402.32
2019-03-23T03:33:51.529Z,403.05
2019-03-23T03:34:51.503Z,402.66
2019-03-23T03:35:51.495Z,403.47
2019-03-23T03:36:51.512Z,403.60
2019-03-23T03:37:56.928Z,404.50
2019-03-23T03:38:52.459Z,403.10
2019-03-23T03:39:51.470Z,403.10
2019-03-23T03:40:51.436Z,402.68
2019-03-23T03:41:51.434Z,403.52
2019-03-23T03:42:51.446Z,403.02
2019-03-23T03:43:51.407Z,403.23
2019-03-23T03:44:51.397Z,403.09
2019-03-23T03:45:51.392Z,405.44
2019-03-23T03:46:51.368Z,403.28
2019-03-23T03:47:51.391Z,403.45
2019-03-23T03:48:51.348Z,402.75
2019-03-23T03:49:51.361Z,403.44
2019-03-23T03:50:51.332Z,402.93
2019-03-23T03:51:51.324Z,404.70
2019-03-23T03:52:51.380Z,403.15
2019-03-23T03:53:51.291Z,402.97
2019-03-23T03:54:51.297Z,403.64
2019-03-23T03:55:51.268Z,403.23
2019-03-23T03:56:51.267Z,402.65
2019-03-23T03:57:51.269Z,402.59
2019-03-23T03:58:51.251Z,403.30
2019-03-23T03:59:51.235Z,403.60
2019-03-23T04:00:51.222Z,403.95
2019-03-23T04:01:51.217Z,403.61
2019-03-23T04:02:51.205Z,402.90
2019-03-23T04:03:51.186Z,402.91
2019-03-23T04:04:51.179Z,403.28
2019-03-23T04:05:51.173Z,402.74
2019-03-23T04:06:51.167Z,403.91
2019-03-23T04:07:51.172Z,403.14
2019-03-23T04:08:51.145Z,404.05
2019-03-23T04:09:51.126Z,403.16
2019-03-23T04:10:51.101Z,403.03
2019-03-23T04:11:51.090Z,403.51
2019-03-23T04:12:51.109Z,403.13
2019-03-23T04:13:51.072Z,403.79
2019-03-23T04:14:51.069Z,403.70
2019-03-23T04:15:51.056Z,402.77
2019-03-23T04:16:51.046Z,403.72
2019-03-23T04:17:51.044Z,403.54
2019-03-23T04:18:51.026Z,403.60
2019-03-23T04:19:51.007Z,403.30
2019-03-23T04:20:50.993Z,403.59
2019-03-23T04:21:50.998Z,403.02
2019-03-23T04:22:50.983Z,403.91
2019-03-23T04:23:50.978Z,403.73
2019-03-23T04:24:50.950Z,403.17
2019-03-23T04:25:50.944Z,403.46
2019-03-23T04:26:50.926Z,403.33
2019-03-23T04:27:50.922Z,402.71
2019-03-23T04:28:50.917Z,403.15
2019-03-23T04:29:50.915Z,403.69
2019-03-23T04:30:50.893Z,403.58
2019-03-23T04:31:50.883Z,403.04
2019-03-23T04:32:50.862Z,403.40
2019-03-23T04:33:50.873Z,404.50
2019-03-23T04:34:50.847Z,403.09
2019-03-23T04:35:50.830Z,403.80
2019-03-23T04:36:50.823Z,403.80
2019-03-23T04:37:50.817Z,403.43
2019-03-23T04:38:50.813Z,403.06
2019-03-23T04:39:50.790Z,404.34
2019-03-23T04:40:50.787Z,403.05
2019-03-23T04:41:50.761Z,402.90
2019-03-23T04:42:50.752Z,402.63
2019-03-23T04:43:50.759Z,403.07
2019-03-23T04:44:50.743Z,403.05
2019-03-23T04:45:50.723Z,403.64
2019-03-23T04:46:50.708Z,403.79
2019-03-23T04:47:50.697Z,402.90
2019-03-23T04:48:50.696Z,403.71
2019-03-23T04:49:50.685Z,403.45
2019-03-23T04:50:50.659Z,403.90
2019-03-23T04:51:50.667Z,403.04
2019-03-23T04:52:50.639Z,403.09
2019-03-23T04:53:50.645Z,402.76
2019-03-23T04:54:50.627Z,403.23
2019-03-23T04:55:50.628Z,403.50
2019-03-23T04:56:50.595Z,403.12
2019-03-23T04:57:50.625Z,403.27
2019-03-23T04:58:50.591Z,402.72
2019-03-23T04:59:50.574Z,403.23
2019-03-23T05:00:50.557Z,403.62
2019-03-23T05:01:50.535Z,403.30
2019-03-23T05:02:50.541Z,403.22
2019-03-23T05:03:50.547Z,403.02
2019-03-23T05:04:50.507Z,403.05
2019-03-23T05:05:50.491Z,403.13
2019-03-23T05:06:50.497Z,403.28
2019-03-23T05:07:50.483Z,402.87
2019-03-23T05:08:50.478Z,403.25
2019-03-23T05:09:50.454Z,402.77
2019-03-23T05:10:50.438Z,403.53
2019-03-23T05:11:50.434Z,403.19
2019-03-23T05:12:50.434Z,403.69
2019-03-23T05:13:50.430Z,403.55
2019-03-23T05:14:50.395Z,402.71
2019-03-23T05:15:50.397Z,403.25
2019-03-23T05:16:50.372Z,403.43
2019-03-23T05:17:50.374Z,403.52
2019-03-23T05:18:50.385Z,403.03
2019-03-23T05:19:50.374Z,403.45
2019-03-23T05:20:50.340Z,403.65
2019-03-23T05:21:50.342Z,403.11
2019-03-23T05:22:50.315Z,404.57
2019-03-23T05:23:50.332Z,404.28
2019-03-23T05:24:50.300Z,404.25
2019-03-23T05:25:50.288Z,404.43
2019-03-23T05:26:50.268Z,404.81
2019-03-23T05:27:50.252Z,404.02
2019-03-23T05:28:50.275Z,403.80
2019-03-23T05:29:50.260Z,404.07
2019-03-23T05:30:50.230Z,403.67
2019-03-23T05:31:50.225Z,403.63
2019-03-23T05:32:50.204Z,403.47
2019-03-23T05:33:50.212Z,403.02
2019-03-23T05:34:50.178Z,404.29
2019-03-23T05:35:50.173Z,403.62
2019-03-23T05:36:50.158Z,404.33
2019-03-23T05:37:50.155Z,403.23
2019-03-23T05:38:50.146Z,404.17
2019-03-23T05:39:50.134Z,404.19
2019-03-23T05:40:50.110Z,405.62
2019-03-23T05:41:50.109Z,403.86
2019-03-23T05:42:50.082Z,402.84
2019-03-23T05:43:50.102Z,403.50
2019-03-23T05:44:50.068Z,404.18
2019-03-23T05:45:50.060Z,404.35
2019-03-23T05:46:50.041Z,404.45
2019-03-23T05:47:50.046Z,403.95
2019-03-23T05:48:50.034Z,403.90
2019-03-23T05:49:50.004Z,404.42
2019-03-23T05:50:50.011Z,404.21
2019-03-23T05:51:49.997Z,404.07
2019-03-23T05:52:49.975Z,404.28
2019-03-23T05:53:50.000Z,405.30
2019-03-23T05:54:49.957Z,404.41
2019-03-23T05:55:49.945Z,404.51
2019-03-23T05:56:49.935Z,404.23
2019-03-23T05:57:49.929Z,404.69
2019-03-23T05:58:49.926Z,404.80
2019-03-23T05:59:49.922Z,404.35
2019-03-23T06:00:49.893Z,404.73
2019-03-23T06:01:49.884Z,403.73
2019-03-23T06:02:49.873Z,404.63
2019-03-23T06:03:49.869Z,403.33
2019-03-23T06:04:49.869Z,404.45
2019-03-23T06:05:49.838Z,403.52
2019-03-23T06:06:49.851Z,404.21
2019-03-23T06:07:49.817Z,403.24
2019-03-23T06:08:55.028Z,404.36
2019-03-23T06:09:50.805Z,403.76
2019-03-23T06:10:49.775Z,404.48
2019-03-23T06:11:49.777Z,404.65
2019-03-23T06:12:49.756Z,404.43
2019-03-23T06:13:49.743Z,403.33
2019-03-23T06:14:49.762Z,404.76
2019-03-23T06:15:49.755Z,404.24
2019-03-23T06:16:49.718Z,404.19
2019-03-23T06:17:49.699Z,406.88
2019-03-23T06:18:49.702Z,404.67
2019-03-23T06:19:49.691Z,404.08
2019-03-23T06:20:49.672Z,404.40
2019-03-23T06:21:49.662Z,404.39
2019-03-23T06:22:49.654Z,404.51
2019-03-23T06:23:49.640Z,403.78
2019-03-23T06:24:49.646Z,405.24
2019-03-23T06:25:49.617Z,403.46
2019-03-23T06:26:49.613Z,404.45
2019-03-23T06:27:49.594Z,403.44
2019-03-23T06:28:49.587Z,404.17
2019-03-23T06:29:49.596Z,403.60
2019-03-23T06:30:49.576Z,404.58
2019-03-23T06:31:49.539Z,403.55
2019-03-23T06:32:49.539Z,404.34
2019-03-23T06:33:49.526Z,403.81
2019-03-23T06:34:49.535Z,405.66
2019-03-23T06:35:49.501Z,405.03
2019-03-23T06:36:49.490Z,404.66
2019-03-23T06:37:49.482Z,403.39
2019-03-23T06:38:49.479Z,404.58
2019-03-23T06:39:49.487Z,403.76
2019-03-23T06:40:49.448Z,404.38
2019-03-23T06:41:49.437Z,403.63
2019-03-23T06:42:59.117Z,404.72
2019-03-23T06:43:50.415Z,403.86
2019-03-23T06:44:49.411Z,404.86
2019-03-23T06:45:49.412Z,405.46
2019-03-23T06:46:49.379Z,404.79
2019-03-23T06:47:49.364Z,404.75
2019-03-23T06:48:49.363Z,405.41
2019-03-23T06:49:49.386Z,403.99
2019-03-23T06:50:49.353Z,405.53
2019-03-23T06:51:49.328Z,404.52
2019-03-23T06:52:49.323Z,405.15
2019-03-23T06:53:49.310Z,404.32
2019-03-23T06:54:49.302Z,405.10
2019-03-23T06:55:49.310Z,404.64
2019-03-23T06:56:49.291Z,404.75
2019-03-23T06:57:49.264Z,405.69
2019-03-23T06:58:49.245Z,404.85
2019-03-23T06:59:49.236Z,403.96
2019-03-23T07:00:49.251Z,405.03
2019-03-23T07:01:49.217Z,404.59
2019-03-23T07:02:49.206Z,404.87
2019-03-23T07:03:49.191Z,404.61
2019-03-23T07:04:49.177Z,405.10
2019-03-23T07:05:49.207Z,404.43
2019-03-23T07:06:49.162Z,405.22
2019-03-23T07:07:49.172Z,404.40
2019-03-23T07:08:49.131Z,406.45
2019-03-23T07:09:49.127Z,404.65
2019-03-23T07:10:49.141Z,405.09
2019-03-23T07:11:49.110Z,404.63
2019-03-23T07:12:49.089Z,405.09
2019-03-23T07:13:49.086Z,404.71
2019-03-23T07:14:49.065Z,405.67
2019-03-23T07:15:49.079Z,406.21
2019-03-23T07:16:49.049Z,405.47
2019-03-23T07:17:49.097Z,405.70
2019-03-23T07:18:49.031Z,405.06
2019-03-23T07:19:49.019Z,404.74
2019-03-23T07:20:49.128Z,405.12
2019-03-23T07:21:49.003Z,404.60
2019-03-23T07:22:48.985Z,404.75
2019-03-23T07:23:48.974Z,404.38
2019-03-23T07:24:48.955Z,404.75
2019-03-23T07:25:49.004Z,403.99
2019-03-23T07:26:48.953Z,405.03
2019-03-23T07:27:48.925Z,404.42
2019-03-23T07:28:48.929Z,404.36
2019-03-23T07:29:48.921Z,404.30
2019-03-23T07:30:48.891Z,404.82
2019-03-23T07:31:48.898Z,404.82
2019-03-23T07:32:48.886Z,404.55
2019-03-23T07:33:48.861Z,405.09
2019-03-23T07:34:48.848Z,405.46
2019-03-23T07:35:48.846Z,404.95
2019-03-23T07:36:48.851Z,405.61
2019-03-23T07:37:48.817Z,405.05
2019-03-23T07:38:48.837Z,405.11
2019-03-23T07:39:48.802Z,406.22
2019-03-23T07:40:48.779Z,405.93
2019-03-23T07:41:48.793Z,405.34
2019-03-23T07:42:48.780Z,405.86
2019-03-23T07:43:48.749Z,405.77
2019-03-23T07:44:48.747Z,405.15
2019-03-23T07:45:48.725Z,405.58
2019-03-23T07:46:48.767Z,406.05
2019-03-23T07:47:48.706Z,405.16
2019-03-23T07:48:48.703Z,405.81
2019-03-23T07:49:48.688Z,408.15
2019-03-23T07:50:48.681Z,406.56
2019-03-23T07:51:48.688Z,407.43
2019-03-23T07:52:48.670Z,405.58
2019-03-23T07:53:48.648Z,406.16
2019-03-23T07:54:48.650Z,406.28
2019-03-23T07:55:48.616Z,407.23
2019-03-23T07:56:48.629Z,406.22
2019-03-23T07:57:48.595Z,406.06
2019-03-23T07:58:48.592Z,406.76
2019-03-23T07:59:48.580Z,406.49
2019-03-23T08:00:48.585Z,407.97
2019-03-23T08:01:48.590Z,407.28
2019-03-23T08:02:48.530Z,406.87
2019-03-23T08:03:48.536Z,407.22
2019-03-23T08:04:48.542Z,406.78
2019-03-23T08:05:48.507Z,405.55
2019-03-23T08:06:48.529Z,408.67
2019-03-23T08:07:48.492Z,406.53
2019-03-23T08:08:48.484Z,406.76
2019-03-23T08:09:48.461Z,406.95
2019-03-23T08:10:48.452Z,406.18
2019-03-23T08:11:48.455Z,406.61
2019-03-23T08:12:48.428Z,407.28
2019-03-23T08:13:48.424Z,407.25
2019-03-23T08:14:48.401Z,407.49
2019-03-23T08:15:48.394Z,407.48
2019-03-23T08:16:48.412Z,406.98
2019-03-23T08:17:48.381Z,406.00
2019-03-23T08:18:48.379Z,406.25
2019-03-23T08:19:48.373Z,407.02
2019-03-23T08:20:48.348Z,407.81
2019-03-23T08:21:48.352Z,407.53
2019-03-23T08:22:48.324Z,408.63
2019-03-23T08:23:48.323Z,407.10
2019-03-23T08:24:48.290Z,407.73
2019-03-23T08:25:48.283Z,407.79
2019-03-23T08:26:48.322Z,409.76
2019-03-23T08:27:48.272Z,409.32
2019-03-23T08:28:48.281Z,408.16
2019-03-23T08:29:48.232Z,407.61
2019-03-23T08:30:48.231Z,407.22
2019-03-23T08:31:48.284Z,408.96
2019-03-23T08:32:48.222Z,408.03
2019-03-23T08:33:48.199Z,409.77
2019-03-23T08:34:48.269Z,407.86
2019-03-23T08:35:48.190Z,407.95
2019-03-23T08:36:48.171Z,408.47
2019-03-23T08:37:48.148Z,408.65
2019-03-23T08:38:48.177Z,409.78
2019-03-23T08:39:48.863Z,407.65
2019-03-23T08:40:48.115Z,407.59
2019-03-23T08:41:48.149Z,408.90
2019-03-23T08:42:48.107Z,408.94
2019-03-23T08:43:48.088Z,409.26
2019-03-23T08:44:48.068Z,408.56
2019-03-23T08:45:48.082Z,409.73
2019-03-23T08:46:48.045Z,408.20
2019-03-23T08:47:48.074Z,407.46
2019-03-23T08:48:48.055Z,408.34
2019-03-23T08:49:48.030Z,407.05
2019-03-23T08:50:48.066Z,407.77
2019-03-23T08:51:48.015Z,407.48
2019-03-23T08:52:48.003Z,406.77
2019-03-23T08:53:48.005Z,407.93
2019-03-23T08:54:47.960Z,408.34
2019-03-23T08:55:47.971Z,408.51
2019-03-23T08:56:47.958Z,408.15
2019-03-23T08:57:47.967Z,408.70
2019-03-23T08:58:47.909Z,409.02
2019-03-23T08:59:47.909Z,409.20
2019-03-23T09:00:47.898Z,408.37
2019-03-23T09:01:47.888Z,408.26
2019-03-23T09:02:47.904Z,408.37
2019-03-23T09:03:52.349Z,409.98
2019-03-23T09:04:47.863Z,407.37
2019-03-23T09:05:47.842Z,409.14
2019-03-23T09:06:47.839Z,410.77
2019-03-23T09:07:47.853Z,408.23
2019-03-23T09:08:47.811Z,408.63
2019-03-23T09:09:47.802Z,411.02
2019-03-23T09:10:47.784Z,407.58
2019-03-23T09:11:47.771Z,406.28
2019-03-23T09:12:47.800Z,407.42
2019-03-23T09:13:47.757Z,405.58
2019-03-23T09:14:47.748Z,408.17
2019-03-23T09:15:47.730Z,409.65
2019-03-23T09:16:47.707Z,407.73
2019-03-23T09:17:47.736Z,407.10
2019-03-23T09:18:47.698Z,406.66
2019-03-23T09:19:47.699Z,406.05
2019-03-23T09:20:47.680Z,406.78
2019-03-23T09:21:47.669Z,406.42
2019-03-23T09:22:47.685Z,405.92
2019-03-23T09:23:47.647Z,405.89
2019-03-23T09:24:47.636Z,408.39
2019-03-23T09:25:47.626Z,407.65
2019-03-23T09:26:47.607Z,410.34
2019-03-23T09:27:47.616Z,409.27
2019-03-23T09:28:47.620Z,407.60
2019-03-23T09:29:47.587Z,410.69
2019-03-23T09:30:47.613Z,408.53
2019-03-23T09:31:47.542Z,407.33
2019-03-23T09:32:47.553Z,408.32
2019-03-23T09:33:47.522Z,407.15
2019-03-23T09:34:47.517Z,407.97
2019-03-23T09:35:47.506Z,406.44
2019-03-23T09:36:47.508Z,406.18
2019-03-23T09:37:47.507Z,406.06
2019-03-23T09:38:47.502Z,406.74
2019-03-23T09:39:47.462Z,410.29
2019-03-23T09:40:47.470Z,408.10
2019-03-23T09:41:47.447Z,408.05
2019-03-23T09:42:47.449Z,409.05
2019-03-23T09:43:47.417Z,407.86
2019-03-23T09:44:47.416Z,408.52
2019-03-23T09:45:47.409Z,407.43
2019-03-23T09:46:47.441Z,407.65
2019-03-23T09:47:47.395Z,406.16
2019-03-23T09:48:47.358Z,409.83
2019-03-23T09:49:47.354Z,408.79
2019-03-23T09:50:47.334Z,409.52
2019-03-23T09:51:47.337Z,407.03
2019-03-23T09:52:47.360Z,406.99
2019-03-23T09:53:47.313Z,407.16
2019-03-23T09:54:47.300Z,409.83
2019-03-23T09:55:47.291Z,409.93
2019-03-23T09:56:47.277Z,408.57
2019-03-23T09:57:47.284Z,408.52
2019-03-23T09:58:47.259Z,407.79
2019-03-23T09:59:47.243Z,408.74
2019-03-23T10:00:47.222Z,408.79
2019-03-23T10:01:47.236Z,405.73
2019-03-23T10:02:47.231Z,405.60
2019-03-23T10:03:47.205Z,409.95
2019-03-23T10:04:47.207Z,408.81
2019-03-23T10:05:47.178Z,409.49
2019-03-23T10:06:47.164Z,409.79
2019-03-23T10:07:47.162Z,408.97
2019-03-23T10:08:47.159Z,407.27
2019-03-23T10:09:47.137Z,410.40
2019-03-23T10:10:47.123Z,410.41
2019-03-23T10:11:47.102Z,409.04
2019-03-23T10:12:47.128Z,410.70
2019-03-23T10:13:47.089Z,409.38
2019-03-23T10:14:47.071Z,409.47
2019-03-23T10:15:47.091Z,408.77
2019-03-23T10:16:47.062Z,409.52
2019-03-23T10:17:47.053Z,408.55
2019-03-23T10:18:47.033Z,407.52
2019-03-23T10:19:47.045Z,407.21
2019-03-23T10:20:47.015Z,406.57
2019-03-23T10:21:47.002Z,408.91
2019-03-23T10:22:47.035Z,410.67
2019-03-23T10:23:46.983Z,409.15
2019-03-23T10:24:46.977Z,409.85
2019-03-23T10:25:46.959Z,407.11
2019-03-23T10:26:46.949Z,409.66
2019-03-23T10:27:46.950Z,408.29
2019-03-23T10:28:46.908Z,406.58
2019-03-23T10:29:46.911Z,407.27
2019-03-23T10:30:46.951Z,409.86
2019-03-23T10:31:46.893Z,408.62
2019-03-23T10:32:46.943Z,409.74
2019-03-23T10:33:46.856Z,409.38
2019-03-23T10:34:46.906Z,409.18
2019-03-23T10:35:46.835Z,410.93
2019-03-23T10:36:46.840Z,408.34
2019-03-23T10:37:46.831Z,410.15
2019-03-23T10:38:46.809Z,409.77
2019-03-23T10:39:46.802Z,409.10
2019-03-23T10:40:46.835Z,408.31
2019-03-23T10:41:46.780Z,408.44
2019-03-23T10:42:46.801Z,409.93
2019-03-23T10:43:46.761Z,410.12
2019-03-23T10:44:46.745Z,406.33
2019-03-23T10:45:46.734Z,409.33
2019-03-23T10:46:46.735Z,408.00
2019-03-23T10:47:46.840Z,407.46
2019-03-23T10:48:46.695Z,409.49
2019-03-23T10:49:46.699Z,409.86
2019-03-23T10:50:46.681Z,410.35
2019-03-23T10:51:46.666Z,410.78
2019-03-23T10:52:46.688Z,410.75
2019-03-23T10:53:46.650Z,410.08
2019-03-23T10:54:46.644Z,408.94
2019-03-23T10:55:46.613Z,410.39
2019-03-23T10:56:46.616Z,409.50
2019-03-23T10:57:46.610Z,410.99
2019-03-23T10:58:46.581Z,408.41
2019-03-23T10:59:46.575Z,410.43
2019-03-23T11:00:46.586Z,408.64
2019-03-23T11:01:46.586Z,410.38
2019-03-23T11:02:46.546Z,409.93
2019-03-23T11:03:46.541Z,410.12
2019-03-23T11:04:46.542Z,410.15
2019-03-23T11:05:46.513Z,409.89
2019-03-23T11:06:46.494Z,409.39
2019-03-23T11:07:46.543Z,409.83
2019-03-23T11:08:46.491Z,410.03
2019-03-23T11:09:46.473Z,408.36
2019-03-23T11:10:46.452Z,407.88
2019-03-23T11:11:46.459Z,408.75
2019-03-23T11:12:46.442Z,407.73
2019-03-23T11:13:46.416Z,409.13
2019-03-23T11:14:46.438Z,408.74
2019-03-23T11:15:46.392Z,409.43
2019-03-23T11:16:46.402Z,408.19
2019-03-23T11:17:46.389Z,410.97
2019-03-23T11:18:46.366Z,411.14
2019-03-23T11:19:46.352Z,410.98
2019-03-23T11:20:46.350Z,410.81
2019-03-23T11:21:46.337Z,410.77
2019-03-23T11:22:46.337Z,406.73
2019-03-23T11:23:46.309Z,411.11
2019-03-23T11:24:46.289Z,411.01
2019-03-23T11:25:46.290Z,411.35
2019-03-23T11:26:46.292Z,411.59
2019-03-23T11:27:46.288Z,413.40
2019-03-23T11:28:46.266Z,413.18
2019-03-23T11:29:46.267Z,413.31
2019-03-23T11:30:46.227Z,410.75
2019-03-23T11:31:46.224Z,412.22
2019-03-23T11:32:46.238Z,410.55
2019-03-23T11:33:46.242Z,411.98
2019-03-23T11:34:46.182Z,410.76
2019-03-23T11:35:46.181Z,411.33
2019-03-23T11:36:46.155Z,409.58
2019-03-23T11:37:46.370Z,411.59
2019-03-23T11:38:46.152Z,413.90
2019-03-23T11:39:46.140Z,410.57
2019-03-23T11:40:53.897Z,410.68
2019-03-23T11:41:47.111Z,411.33
2019-03-23T11:42:50.124Z,412.20
2019-03-23T11:43:46.100Z,411.20
2019-03-23T11:44:46.109Z,413.25
2019-03-23T11:45:46.057Z,411.69
2019-03-23T11:46:46.047Z,414.17
2019-03-23T11:47:46.101Z,412.78
2019-03-23T11:48:46.031Z,413.36
2019-03-23T11:49:46.025Z,412.39
2019-03-23T11:50:46.030Z,412.09
2019-03-23T11:51:46.023Z,410.79
2019-03-23T11:52:47.074Z,410.60
2019-03-23T11:53:45.980Z,411.80
2019-03-23T11:54:45.970Z,411.94
2019-03-23T11:55:45.953Z,410.66
2019-03-23T11:56:45.943Z,410.62
2019-03-23T11:57:45.973Z,411.62
2019-03-23T11:58:45.914Z,411.48
2019-03-23T11:59:45.912Z,410.45
2019-03-23T12:00:45.903Z,409.02
2019-03-23T12:01:51.776Z,410.07
2019-03-23T12:02:46.887Z,410.05
2019-03-23T12:03:45.887Z,410.35
2019-03-23T12:04:45.848Z,409.81
2019-03-23T12:05:45.842Z,408.42
2019-03-23T12:06:45.839Z,407.85
2019-03-23T12:07:45.844Z,408.48
2019-03-23T12:08:45.803Z,407.87
2019-03-23T12:09:45.791Z,407.79
2019-03-23T12:10:45.786Z,408.80
2019-03-23T12:11:45.784Z,408.58
2019-03-23T12:12:45.784Z,408.64
2019-03-23T12:13:45.759Z,408.39
2019-03-23T12:14:45.746Z,408.23
2019-03-23T12:15:45.721Z,407.78
2019-03-23T12:16:45.716Z,407.82
2019-03-23T12:17:45.752Z,407.81
2019-03-23T12:18:45.697Z,408.41
2019-03-23T12:19:45.707Z,406.23
2019-03-23T12:20:45.663Z,406.25
2019-03-23T12:21:45.666Z,407.37
2019-03-23T12:22:45.908Z,407.23
2019-03-23T12:23:45.645Z,407.55
2019-03-23T12:24:45.637Z,405.23
2019-03-23T12:25:45.619Z,406.22
2019-03-23T12:26:45.598Z,405.29
2019-03-23T12:27:45.609Z,405.55
2019-03-23T12:28:45.580Z,407.20